createdAt,value
2022-11-24T00:02:31.525Z,92.63
2022-11-24T00:05:38.380Z,92.42
2022-11-24T00:08:41.879Z,92.55
2022-11-24T00:11:43.537Z,92.28
2022-11-24T00:14:46.990Z,92.51
2022-11-24T00:17:48.571Z,92.35
2022-11-24T00:20:53.066Z,92.07
2022-11-24T00:23:55.043Z,91.77
2022-11-24T00:26:56.580Z,92.12
2022-11-24T00:29:59.501Z,92.43
2022-11-24T00:33:03.429Z,92.73
2022-11-24T00:36:05.421Z,92.77
2022-11-24T00:39:14.806Z,92.52
2022-11-24T00:42:17.032Z,92.66
2022-11-24T00:45:18.629Z,92.53
2022-11-24T00:48:20.310Z,92.58
2022-11-24T00:51:24.909Z,92.13
2022-11-24T00:54:26.452Z,92.79
2022-11-24T00:57:27.995Z,92.38
2022-11-24T01:00:29.681Z,91.70
2022-11-24T01:03:31.606Z,91.44
2022-11-24T01:06:35.226Z,91.33
2022-11-24T01:09:37.766Z,90.91
2022-11-24T01:12:39.698Z,90.39
2022-11-24T01:15:41.411Z,90.69
2022-11-24T01:18:43.197Z,90.55
2022-11-24T01:21:45.025Z,90.53
2022-11-24T01:24:46.669Z,90.44
2022-11-24T01:27:48.234Z,90.53
2022-11-24T01:31:05.240Z,90.21
2022-11-24T01:34:07.162Z,89.97
2022-11-24T01:37:08.782Z,89.82
2022-11-24T01:40:10.995Z,90.23
2022-11-24T01:43:21.394Z,89.98
2022-11-24T01:46:45.158Z,89.98
2022-11-24T01:49:50.857Z,90.14
2022-11-24T01:52:55.419Z,89.43
2022-11-24T01:55:58.030Z,89.55
2022-11-24T01:59:01.739Z,89.88
2022-11-24T02:02:03.869Z,89.82
2022-11-24T02:05:15.745Z,89.58
2022-11-24T02:08:42.436Z,89.45
2022-11-24T02:11:44.674Z,90.20
2022-11-24T02:14:46.371Z,90.25
2022-11-24T02:17:48.014Z,90.27
2022-11-24T02:20:49.641Z,90.56
2022-11-24T02:24:13.296Z,91.03
2022-11-24T02:27:14.912Z,90.44
2022-11-24T02:30:17.625Z,90.06
2022-11-24T02:33:20.816Z,90.51
2022-11-24T02:36:22.417Z,90.04
2022-11-24T02:39:24.127Z,90.60
2022-11-24T02:42:28.387Z,90.12
2022-11-24T02:45:31.367Z,91.00
2022-11-24T02:48:32.993Z,90.35
2022-11-24T02:51:34.704Z,90.88
2022-11-24T02:54:36.702Z,90.38
2022-11-24T02:57:38.610Z,91.16
2022-11-24T03:00:41.350Z,90.44
2022-11-24T03:03:43.526Z,90.69
2022-11-24T03:06:45.113Z,90.43
2022-11-24T03:09:47.095Z,90.81
2022-11-24T03:12:48.682Z,90.52
2022-11-24T03:15:50.268Z,90.21
2022-11-24T03:18:52.975Z,90.57
2022-11-24T03:21:54.558Z,90.82
2022-11-24T03:24:56.124Z,89.76
2022-11-24T03:27:58.283Z,90.78
2022-11-24T03:30:59.956Z,90.85
2022-11-24T03:34:01.621Z,90.70
2022-11-24T03:37:03.240Z,90.90
2022-11-24T03:40:05.341Z,90.40
2022-11-24T03:43:06.931Z,90.62
2022-11-24T03:46:08.674Z,91.22
2022-11-24T03:49:10.547Z,90.76
2022-11-24T03:52:12.365Z,90.34
2022-11-24T03:55:14.002Z,89.99
2022-11-24T03:58:15.644Z,89.78
2022-11-24T04:01:17.279Z,89.71
2022-11-24T04:04:19.574Z,89.01
2022-11-24T04:07:21.296Z,88.62
2022-11-24T04:10:26.296Z,88.70
2022-11-24T04:13:28.504Z,89.37
2022-11-24T04:16:30.146Z,87.91
2022-11-24T04:19:31.716Z,88.56
2022-11-24T04:22:33.499Z,88.38
2022-11-24T04:25:35.784Z,88.03
2022-11-24T04:28:38.515Z,88.14
2022-11-24T04:31:40.105Z,87.71
2022-11-24T04:34:41.736Z,87.97
2022-11-24T04:37:43.331Z,87.43
2022-11-24T04:40:44.974Z,87.07
2022-11-24T04:43:49.373Z,87.46
2022-11-24T04:46:51.053Z,87.91
2022-11-24T04:49:53.589Z,87.71
2022-11-24T04:52:55.164Z,87.03
2022-11-24T04:55:56.721Z,87.81
2022-11-24T04:58:58.375Z,87.72
2022-11-24T05:01:59.966Z,87.96
2022-11-24T05:05:01.670Z,87.60
2022-11-24T05:08:03.482Z,88.14
2022-11-24T05:11:06.773Z,87.44
2022-11-24T05:14:08.423Z,87.81
2022-11-24T05:17:09.998Z,87.63
2022-11-24T05:20:11.663Z,87.66
2022-11-24T05:23:13.314Z,88.39
2022-11-24T05:26:14.881Z,88.50
2022-11-24T05:29:16.517Z,89.09
2022-11-24T05:32:18.131Z,89.13
2022-11-24T05:35:19.765Z,88.77
2022-11-24T05:38:22.918Z,88.94
2022-11-24T05:41:24.491Z,88.91
2022-11-24T05:44:26.074Z,89.59
2022-11-24T05:47:27.729Z,89.77
2022-11-24T05:50:29.398Z,89.36
2022-11-24T05:53:31.030Z,89.19
2022-11-24T05:56:32.623Z,89.05
2022-11-24T05:59:34.546Z,88.80
2022-11-24T06:02:36.252Z,88.24
2022-11-24T06:05:38.249Z,88.28
2022-11-24T06:08:39.898Z,88.22
2022-11-24T06:11:41.691Z,88.19
2022-11-24T06:14:43.378Z,87.44
2022-11-24T06:17:52.285Z,87.71
2022-11-24T06:21:09.784Z,86.34
2022-11-24T06:24:12.796Z,86.39
2022-11-24T06:27:14.591Z,85.83
2022-11-24T06:30:18.263Z,86.32
2022-11-24T06:33:20.474Z,87.23
2022-11-24T06:36:22.390Z,85.54
2022-11-24T06:39:24.191Z,86.16
2022-11-24T06:42:25.771Z,85.06
2022-11-24T06:45:30.493Z,84.83
2022-11-24T06:48:33.913Z,85.34
2022-11-24T06:51:35.685Z,84.70
2022-11-24T06:54:37.528Z,84.71
2022-11-24T06:57:39.214Z,85.19
2022-11-24T07:00:40.918Z,85.26
2022-11-24T07:03:42.742Z,86.12
2022-11-24T07:06:45.002Z,85.52
2022-11-24T07:09:46.846Z,85.90
2022-11-24T07:12:48.810Z,86.45
2022-11-24T07:15:50.897Z,87.10
2022-11-24T07:18:54.054Z,85.77
2022-11-24T07:21:55.806Z,85.14
2022-11-24T07:24:57.438Z,85.30
2022-11-24T07:27:59.896Z,85.13
2022-11-24T07:31:09.077Z,84.76
2022-11-24T07:34:10.984Z,84.24
2022-11-24T07:37:12.541Z,84.21
2022-11-24T07:40:14.764Z,85.27
2022-11-24T07:43:20.184Z,85.03
2022-11-24T07:46:22.210Z,85.75
2022-11-24T07:49:24.123Z,85.53
2022-11-24T07:52:26.868Z,86.14
2022-11-24T07:55:28.554Z,85.49
2022-11-24T07:58:33.114Z,86.34
2022-11-24T08:01:35.186Z,85.92
2022-11-24T08:04:37.230Z,86.26
2022-11-24T08:07:39.352Z,85.55
2022-11-24T08:10:41.012Z,85.19
2022-11-24T08:13:43.245Z,85.53
2022-11-24T08:16:44.862Z,84.77
2022-11-24T08:19:46.505Z,84.33
2022-11-24T08:22:48.166Z,84.17
2022-11-24T08:25:54.154Z,84.63
2022-11-24T08:28:59.505Z,83.82
2022-11-24T08:32:01.127Z,84.51
2022-11-24T08:35:13.868Z,84.72
2022-11-24T08:38:17.325Z,83.42
2022-11-24T08:41:19.053Z,83.41
2022-11-24T08:44:20.672Z,83.48
2022-11-24T08:47:22.862Z,83.91
2022-11-24T08:50:26.374Z,83.39
2022-11-24T08:53:28.362Z,82.85
2022-11-24T08:56:32.545Z,82.81
2022-11-24T08:59:34.323Z,81.98
2022-11-24T09:02:36.137Z,81.66
2022-11-24T09:05:53.703Z,82.83
2022-11-24T09:08:55.726Z,82.46
2022-11-24T09:11:57.411Z,81.89
2022-11-24T09:14:59.139Z,80.63
2022-11-24T09:18:00.729Z,80.27
2022-11-24T09:21:09.572Z,80.58
2022-11-24T09:24:11.397Z,80.24
2022-11-24T09:27:13.017Z,79.60
2022-11-24T09:30:16.034Z,79.38
2022-11-24T09:33:17.755Z,79.26
2022-11-24T09:36:20.419Z,79.77
2022-11-24T09:39:22.079Z,79.88
2022-11-24T09:42:35.846Z,79.78
2022-11-24T09:46:05.389Z,79.07
2022-11-24T09:49:14.100Z,79.76
2022-11-24T09:52:29.134Z,79.35
2022-11-24T09:55:55.184Z,78.74
2022-11-24T09:59:17.799Z,79.37
2022-11-24T10:02:19.486Z,79.24
2022-11-24T10:05:26.036Z,79.63
2022-11-24T10:08:39.882Z,78.46
2022-11-24T10:11:52.205Z,77.05
2022-11-24T10:15:05.867Z,77.76
2022-11-24T10:18:31.394Z,77.10
2022-11-24T10:22:07.201Z,77.20
2022-11-24T10:25:17.085Z,77.70
2022-11-24T10:28:19.151Z,77.93
2022-11-24T10:31:35.264Z,77.91
2022-11-24T10:34:41.595Z,77.77
2022-11-24T10:38:21.688Z,76.91
2022-11-24T10:41:42.752Z,76.64
2022-11-24T10:44:44.449Z,75.79
2022-11-24T10:47:46.854Z,76.75
2022-11-24T10:50:48.607Z,77.09
2022-11-24T10:53:55.228Z,77.04
2022-11-24T10:56:56.795Z,76.93
2022-11-24T10:59:59.260Z,76.67
2022-11-24T11:03:17.548Z,76.64
2022-11-24T11:06:30.201Z,75.75
2022-11-24T11:09:31.909Z,76.27
2022-11-24T11:12:44.084Z,76.85
2022-11-24T11:15:46.411Z,76.76
2022-11-24T11:18:49.357Z,76.31
2022-11-24T11:22:19.950Z,76.53
2022-11-24T11:25:30.958Z,77.26
2022-11-24T11:28:32.703Z,75.26
2022-11-24T11:31:35.673Z,76.00
2022-11-24T11:34:37.770Z,76.33
2022-11-24T11:37:40.363Z,76.28
2022-11-24T11:40:43.776Z,76.45
2022-11-24T11:43:47.013Z,76.82
2022-11-24T11:46:48.757Z,76.76
2022-11-24T11:49:50.841Z,76.72
2022-11-24T11:53:23.403Z,76.37
2022-11-24T11:56:30.388Z,76.83
2022-11-24T11:59:41.849Z,75.76
2022-11-24T12:03:11.428Z,76.46
2022-11-24T12:06:34.251Z,76.71
2022-11-24T12:10:03.038Z,76.18
2022-11-24T12:13:33.728Z,75.90
2022-11-24T12:16:45.542Z,77.17
2022-11-24T12:20:02.270Z,76.32
2022-11-24T12:23:31.202Z,74.66
2022-11-24T12:26:53.104Z,74.92
2022-11-24T12:30:12.645Z,74.26
2022-11-24T12:33:34.166Z,75.11
2022-11-24T12:36:41.269Z,74.96
2022-11-24T12:39:56.983Z,76.10
2022-11-24T12:43:20.102Z,75.54
2022-11-24T12:46:47.135Z,75.79
2022-11-24T12:50:07.216Z,74.84
2022-11-24T12:53:15.982Z,74.82
2022-11-24T12:56:23.379Z,75.15
2022-11-24T12:59:54.311Z,75.08
2022-11-24T13:03:12.370Z,75.70
2022-11-24T13:06:27.378Z,76.75
2022-11-24T13:09:29.011Z,75.81
2022-11-24T13:12:30.753Z,75.97
2022-11-24T13:16:07.095Z,75.98
2022-11-24T13:19:19.631Z,74.69
2022-11-24T13:22:25.668Z,74.74
2022-11-24T13:25:35.075Z,75.60
2022-11-24T13:29:13.386Z,75.10
2022-11-24T13:32:31.968Z,74.78
2022-11-24T13:35:33.579Z,75.20
2022-11-24T13:39:02.393Z,75.20
2022-11-24T13:42:04.110Z,74.82
2022-11-24T13:45:45.052Z,74.69
2022-11-24T13:48:46.983Z,75.58
2022-11-24T13:51:48.539Z,75.08
2022-11-24T13:54:50.461Z,74.80
2022-11-24T13:57:56.872Z,74.87
2022-11-24T14:01:12.052Z,75.32
2022-11-24T14:04:32.507Z,76.12
2022-11-24T14:07:34.732Z,76.76
2022-11-24T14:10:37.973Z,76.34
2022-11-24T14:13:39.578Z,77.14
2022-11-24T14:16:41.142Z,77.62
2022-11-24T14:19:44.742Z,76.72
2022-11-24T14:22:46.427Z,76.89
2022-11-24T14:25:52.656Z,78.04
2022-11-24T14:29:03.708Z,78.32
2022-11-24T14:32:16.333Z,77.95
2022-11-24T14:35:29.989Z,78.75
2022-11-24T14:38:32.051Z,79.35
2022-11-24T14:41:33.916Z,79.69
2022-11-24T14:44:47.954Z,80.05
2022-11-24T14:47:49.874Z,79.70
2022-11-24T14:50:51.974Z,79.81
2022-11-24T14:54:01.048Z,80.03
2022-11-24T14:57:05.277Z,80.45
2022-11-24T15:00:15.338Z,80.04
2022-11-24T15:03:19.786Z,80.93
2022-11-24T15:06:21.464Z,80.35
2022-11-24T15:09:32.847Z,80.45
2022-11-24T15:12:39.405Z,80.25
2022-11-24T15:15:49.254Z,80.17
2022-11-24T15:19:03.310Z,80.21
2022-11-24T15:22:36.111Z,81.00
2022-11-24T15:25:37.755Z,80.78
2022-11-24T15:28:40.103Z,80.06
2022-11-24T15:31:45.245Z,80.04
2022-11-24T15:34:49.385Z,80.45
2022-11-24T15:37:52.364Z,79.41
2022-11-24T15:40:57.680Z,79.68
2022-11-24T15:43:59.403Z,80.05
2022-11-24T15:47:01.056Z,80.20
2022-11-24T15:50:02.811Z,80.59
2022-11-24T15:53:05.662Z,80.33
2022-11-24T15:56:13.371Z,80.47
2022-11-24T15:59:20.249Z,80.57
2022-11-24T16:02:22.675Z,80.92
2022-11-24T16:05:24.312Z,80.81
2022-11-24T16:08:26.067Z,81.44
2022-11-24T16:11:27.717Z,80.91
2022-11-24T16:14:30.024Z,81.03
2022-11-24T16:17:31.636Z,80.75
2022-11-24T16:20:35.967Z,80.77
2022-11-24T16:23:38.129Z,80.42
2022-11-24T16:26:39.779Z,80.83
2022-11-24T16:29:41.454Z,81.60
2022-11-24T16:32:43.321Z,81.15
2022-11-24T16:35:48.501Z,81.04
2022-11-24T16:38:50.463Z,80.77
2022-11-24T16:41:52.294Z,80.68
2022-11-24T16:44:54.145Z,80.74
2022-11-24T16:47:55.922Z,80.40
2022-11-24T16:51:05.690Z,81.12
2022-11-24T16:54:08.963Z,80.80
2022-11-24T16:57:14.957Z,80.91
2022-11-24T17:00:17.491Z,81.39
2022-11-24T17:03:19.122Z,81.80
2022-11-24T17:06:21.131Z,82.24
2022-11-24T17:09:23.193Z,82.75
2022-11-24T17:12:24.841Z,83.11
2022-11-24T17:15:33.604Z,83.08
2022-11-24T17:18:36.783Z,84.17
2022-11-24T17:21:38.737Z,84.18
2022-11-24T17:24:40.338Z,83.96
2022-11-24T17:27:41.932Z,83.56
2022-11-24T17:30:43.556Z,84.05
2022-11-24T17:33:45.230Z,83.78
2022-11-24T17:36:47.109Z,83.92
2022-11-24T17:40:05.999Z,84.35
2022-11-24T17:43:11.644Z,83.99
2022-11-24T17:46:13.362Z,84.09
2022-11-24T17:49:15.157Z,83.89
2022-11-24T17:52:18.154Z,84.37
2022-11-24T17:55:19.939Z,84.21
2022-11-24T17:58:22.154Z,84.46
2022-11-24T18:01:24.363Z,84.50
2022-11-24T18:04:26.304Z,84.71
2022-11-24T18:07:28.032Z,83.82
2022-11-24T18:10:31.901Z,83.95
2022-11-24T18:13:55.625Z,83.52
2022-11-24T18:16:55.728Z,82.96
2022-11-24T18:19:57.549Z,83.51
2022-11-24T18:23:05.968Z,83.71
2022-11-24T18:26:10.330Z,83.93
2022-11-24T18:29:12.278Z,84.01
2022-11-24T18:32:14.156Z,84.04
2022-11-24T18:35:16.254Z,84.51
2022-11-24T18:38:18.294Z,83.83
2022-11-24T18:41:21.071Z,84.75
2022-11-24T18:44:22.649Z,85.18
2022-11-24T18:47:24.540Z,85.17
2022-11-24T18:50:26.555Z,84.87
2022-11-24T18:53:28.918Z,85.07
2022-11-24T18:56:30.901Z,85.64
2022-11-24T18:59:32.986Z,86.19
2022-11-24T19:02:34.894Z,85.64
2022-11-24T19:05:36.795Z,85.80
2022-11-24T19:08:38.842Z,85.72
2022-11-24T19:11:43.448Z,85.58
2022-11-24T19:14:45.337Z,85.91
2022-11-24T19:17:47.525Z,86.11
2022-11-24T19:20:49.702Z,86.29
2022-11-24T19:23:51.691Z,86.80
2022-11-24T19:26:54.420Z,87.06
2022-11-24T19:29:56.388Z,87.08
2022-11-24T19:32:58.343Z,87.11
2022-11-24T19:36:09.081Z,87.07
2022-11-24T19:39:15.494Z,87.14
2022-11-24T19:42:18.299Z,86.91
2022-11-24T19:45:20.178Z,86.96
2022-11-24T19:48:22.033Z,86.74
2022-11-24T19:51:35.545Z,86.63
2022-11-24T19:54:37.670Z,86.43
2022-11-24T19:57:40.226Z,86.21
2022-11-24T20:00:41.933Z,85.85
2022-11-24T20:03:45.441Z,85.21
2022-11-24T20:06:48.112Z,85.63
2022-11-24T20:09:49.978Z,85.24
2022-11-24T20:12:51.497Z,85.25
2022-11-24T20:15:53.393Z,85.41
2022-11-24T20:19:00.401Z,85.00
2022-11-24T20:22:02.399Z,85.29
2022-11-24T20:25:04.447Z,84.97
2022-11-24T20:28:06.465Z,84.52
2022-11-24T20:31:14.900Z,85.45
2022-11-24T20:34:17.145Z,85.04
2022-11-24T20:37:18.917Z,85.16
2022-11-24T20:40:20.863Z,84.80
2022-11-24T20:43:22.698Z,84.74
2022-11-24T20:46:27.369Z,84.85
2022-11-24T20:49:29.779Z,84.37
2022-11-24T20:52:31.665Z,84.17
2022-11-24T20:55:34.467Z,85.24
2022-11-24T20:58:37.463Z,85.38
2022-11-24T21:01:42.800Z,85.50
2022-11-24T21:04:44.715Z,85.10
2022-11-24T21:07:46.694Z,86.16
2022-11-24T21:10:56.013Z,86.17
2022-11-24T21:13:58.102Z,86.88
2022-11-24T21:16:59.918Z,87.65
2022-11-24T21:20:01.706Z,86.49
2022-11-24T21:23:04.998Z,86.38
2022-11-24T21:26:12.988Z,86.62
2022-11-24T21:29:22.261Z,87.41
2022-11-24T21:32:25.086Z,88.05
2022-11-24T21:35:26.690Z,88.45
2022-11-24T21:38:28.278Z,88.25
2022-11-24T21:41:32.785Z,88.25
2022-11-24T21:44:35.018Z,88.06
2022-11-24T21:47:37.625Z,87.21
2022-11-24T21:50:39.242Z,87.17
2022-11-24T21:53:41.586Z,86.77
2022-11-24T21:56:43.219Z,86.75
2022-11-24T21:59:45.064Z,86.37
2022-11-24T22:02:47.339Z,86.06
2022-11-24T22:05:56.414Z,86.44
2022-11-24T22:08:57.982Z,86.85
2022-11-24T22:12:00.610Z,87.75
2022-11-24T22:15:02.236Z,86.80
2022-11-24T22:18:05.077Z,86.45
2022-11-24T22:21:10.260Z,85.55
2022-11-24T22:24:11.965Z,85.83
2022-11-24T22:27:13.543Z,85.53
2022-11-24T22:30:15.380Z,85.37
2022-11-24T22:33:16.976Z,85.89
2022-11-24T22:36:22.638Z,85.89
2022-11-24T22:39:24.241Z,86.02
2022-11-24T22:42:25.869Z,85.84
2022-11-24T22:45:27.457Z,86.45
2022-11-24T22:48:29.087Z,86.79
2022-11-24T22:51:33.032Z,86.74
2022-11-24T22:54:34.940Z,86.28
2022-11-24T22:57:36.717Z,86.18
2022-11-24T23:00:38.874Z,86.73
2022-11-24T23:03:40.907Z,87.51
2022-11-24T23:06:43.038Z,87.91
2022-11-24T23:09:44.845Z,87.84
2022-11-24T23:12:46.430Z,87.34
2022-11-24T23:15:47.969Z,87.20
2022-11-24T23:18:53.730Z,86.95
2022-11-24T23:21:55.701Z,87.20
2022-11-24T23:24:57.301Z,87.58
2022-11-24T23:27:58.912Z,87.86
2022-11-24T23:31:04.982Z,87.65
2022-11-24T23:34:06.732Z,87.84
2022-11-24T23:37:08.409Z,87.65
2022-11-24T23:40:10.341Z,88.64
2022-11-24T23:43:11.887Z,88.06
2022-11-24T23:46:20.257Z,88.66
2022-11-24T23:49:21.850Z,88.65
2022-11-24T23:52:23.472Z,88.06
2022-11-24T23:55:25.057Z,88.29
2022-11-24T23:58:26.751Z,88.37
